sensor_id;sensor_type;location;lat;lon;timestamp;P1;durP1;ratioP1;P2;durP2;ratioP2
8885;SDS011;4479;51.162;13.906;2022-12-18T00:12:10;18.20;;;9.20;;
8885;SDS011;4479;51.162;13.906;2022-12-18T00:23:02;14.73;;;8.43;;
8885;SDS011;4479;51.162;13.906;2022-12-18T00:33:15;15.27;;;8.40;;
8885;SDS011;4479;51.162;13.906;2022-12-18T00:54:42;20.20;;;9.43;;
8885;SDS011;4479;51.162;13.906;2022-12-18T01:15:51;17.67;;;9.20;;
8885;SDS011;4479;51.162;13.906;2022-12-18T01:26:34;14.00;;;8.13;;
8885;SDS011;4479;51.162;13.906;2022-12-18T01:37:21;14.37;;;8.30;;
8885;SDS011;4479;51.162;13.906;2022-12-18T01:58:30;17.27;;;8.57;;
8885;SDS011;4479;51.162;13.906;2022-12-18T02:08:53;13.93;;;8.13;;
8885;SDS011;4479;51.162;13.906;2022-12-18T02:19:26;16.23;;;8.20;;
8885;SDS011;4479;51.162;13.906;2022-12-18T02:30:21;15.60;;;8.23;;
8885;SDS011;4479;51.162;13.906;2022-12-18T02:40:39;13.83;;;7.07;;
8885;SDS011;4479;51.162;13.906;2022-12-18T02:50:58;15.43;;;7.40;;
8885;SDS011;4479;51.162;13.906;2022-12-18T03:01:46;13.40;;;6.70;;
8885;SDS011;4479;51.162;13.906;2022-12-18T03:12:14;12.03;;;6.20;;
8885;SDS011;4479;51.162;13.906;2022-12-18T03:22:38;11.57;;;6.40;;
8885;SDS011;4479;51.162;13.906;2022-12-18T03:32:58;12.30;;;6.63;;
8885;SDS011;4479;51.162;13.906;2022-12-18T03:43:23;12.43;;;6.50;;
8885;SDS011;4479;51.162;13.906;2022-12-18T03:53:57;10.77;;;6.63;;
8885;SDS011;4479;51.162;13.906;2022-12-18T04:04:12;16.67;;;8.13;;
8885;SDS011;4479;51.162;13.906;2022-12-18T04:14:20;13.53;;;7.60;;
8885;SDS011;4479;51.162;13.906;2022-12-18T04:24:28;14.53;;;7.60;;
8885;SDS011;4479;51.162;13.906;2022-12-18T04:46:25;10.37;;;5.90;;
8885;SDS011;4479;51.162;13.906;2022-12-18T04:56:35;10.40;;;5.67;;
8885;SDS011;4479;51.162;13.906;2022-12-18T05:06:48;10.30;;;6.13;;
8885;SDS011;4479;51.162;13.906;2022-12-18T05:16:58;8.27;;;5.37;;
8885;SDS011;4479;51.162;13.906;2022-12-18T05:27:20;9.93;;;6.10;;
8885;SDS011;4479;51.162;13.906;2022-12-18T05:38:05;10.77;;;6.10;;
8885;SDS011;4479;51.162;13.906;2022-12-18T05:48:15;12.97;;;7.60;;
8885;SDS011;4479;51.162;13.906;2022-12-18T05:58:24;13.57;;;7.20;;
8885;SDS011;4479;51.162;13.906;2022-12-18T06:08:41;14.43;;;7.90;;
8885;SDS011;4479;51.162;13.906;2022-12-18T06:18:56;12.97;;;7.03;;
8885;SDS011;4479;51.162;13.906;2022-12-18T06:29:47;16.33;;;8.37;;
8885;SDS011;4479;51.162;13.906;2022-12-18T06:40:37;12.83;;;6.87;;
8885;SDS011;4479;51.162;13.906;2022-12-18T07:11:31;11.17;;;6.03;;
8885;SDS011;4479;51.162;13.906;2022-12-18T07:21:34;11.23;;;6.00;;
8885;SDS011;4479;51.162;13.906;2022-12-18T07:31:40;15.77;;;7.90;;
8885;SDS011;4479;51.162;13.906;2022-12-18T07:41:43;14.93;;;8.03;;
8885;SDS011;4479;51.162;13.906;2022-12-18T08:23:28;12.87;;;7.27;;
8885;SDS011;4479;51.162;13.906;2022-12-18T08:33:33;10.87;;;6.43;;
8885;SDS011;4479;51.162;13.906;2022-12-18T08:43:37;11.07;;;5.87;;
8885;SDS011;4479;51.162;13.906;2022-12-18T08:53:56;10.70;;;6.10;;
8885;SDS011;4479;51.162;13.906;2022-12-18T09:04:01;13.23;;;7.10;;
8885;SDS011;4479;51.162;13.906;2022-12-18T09:14:04;14.93;;;8.57;;
8885;SDS011;4479;51.162;13.906;2022-12-18T09:24:11;14.90;;;8.00;;
8885;SDS011;4479;51.162;13.906;2022-12-18T09:34:28;12.83;;;7.23;;
8885;SDS011;4479;51.162;13.906;2022-12-18T09:44:32;16.17;;;8.43;;
8885;SDS011;4479;51.162;13.906;2022-12-18T09:54:38;14.40;;;8.53;;
8885;SDS011;4479;51.162;13.906;2022-12-18T10:04:48;14.57;;;8.50;;
8885;SDS011;4479;51.162;13.906;2022-12-18T10:26:47;16.00;;;7.90;;
8885;SDS011;4479;51.162;13.906;2022-12-18T10:36:50;16.60;;;8.43;;
8885;SDS011;4479;51.162;13.906;2022-12-18T10:46:54;15.77;;;8.27;;
8885;SDS011;4479;51.162;13.906;2022-12-18T10:57:15;15.37;;;8.57;;
8885;SDS011;4479;51.162;13.906;2022-12-18T11:18:32;16.47;;;8.63;;
8885;SDS011;4479;51.162;13.906;2022-12-18T11:28:37;14.73;;;8.03;;
8885;SDS011;4479;51.162;13.906;2022-12-18T11:38:43;14.43;;;7.90;;
8885;SDS011;4479;51.162;13.906;2022-12-18T11:48:49;15.57;;;8.17;;
8885;SDS011;4479;51.162;13.906;2022-12-18T11:59:03;15.50;;;7.93;;
8885;SDS011;4479;51.162;13.906;2022-12-18T12:30:18;14.97;;;7.20;;
8885;SDS011;4479;51.162;13.906;2022-12-18T12:40:49;13.73;;;7.40;;
8885;SDS011;4479;51.162;13.906;2022-12-18T12:51:06;11.90;;;6.53;;
8885;SDS011;4479;51.162;13.906;2022-12-18T13:01:25;12.17;;;6.50;;
8885;SDS011;4479;51.162;13.906;2022-12-18T13:11:38;13.70;;;7.07;;
8885;SDS011;4479;51.162;13.906;2022-12-18T13:22:04;12.07;;;6.83;;
8885;SDS011;4479;51.162;13.906;2022-12-18T13:43:54;11.10;;;6.60;;
8885;SDS011;4479;51.162;13.906;2022-12-18T15:08:00;13.77;;;6.80;;
8885;SDS011;4479;51.162;13.906;2022-12-18T15:18:04;14.33;;;7.10;;
8885;SDS011;4479;51.162;13.906;2022-12-18T15:28:31;13.50;;;6.90;;
8885;SDS011;4479;51.162;13.906;2022-12-18T15:49:23;14.33;;;7.33;;
8885;SDS011;4479;51.162;13.906;2022-12-18T15:59:29;15.10;;;7.73;;
8885;SDS011;4479;51.162;13.906;2022-12-18T16:09:33;18.33;;;8.50;;
8885;SDS011;4479;51.162;13.906;2022-12-18T16:19:38;16.33;;;8.60;;
8885;SDS011;4479;51.162;13.906;2022-12-18T16:39:59;21.70;;;9.90;;
8885;SDS011;4479;51.162;13.906;2022-12-18T16:50:15;18.40;;;9.93;;
8885;SDS011;4479;51.162;13.906;2022-12-18T17:00:26;20.87;;;9.73;;
8885;SDS011;4479;51.162;13.906;2022-12-18T17:10:30;17.33;;;9.70;;
8885;SDS011;4479;51.162;13.906;2022-12-18T17:20:49;19.97;;;10.47;;
8885;SDS011;4479;51.162;13.906;2022-12-18T17:30:53;19.63;;;10.07;;
8885;SDS011;4479;51.162;13.906;2022-12-18T17:41:09;20.43;;;9.93;;
8885;SDS011;4479;51.162;13.906;2022-12-18T17:51:17;22.57;;;10.33;;
8885;SDS011;4479;51.162;13.906;2022-12-18T18:01:54;17.17;;;9.77;;
8885;SDS011;4479;51.162;13.906;2022-12-18T18:33:50;15.53;;;8.27;;
8885;SDS011;4479;51.162;13.906;2022-12-18T18:44:15;19.43;;;9.93;;
8885;SDS011;4479;51.162;13.906;2022-12-18T18:54:21;19.27;;;10.03;;
8885;SDS011;4479;51.162;13.906;2022-12-18T19:15:02;19.03;;;9.20;;
8885;SDS011;4479;51.162;13.906;2022-12-18T19:25:10;21.67;;;10.13;;
8885;SDS011;4479;51.162;13.906;2022-12-18T19:35:14;19.47;;;9.43;;
8885;SDS011;4479;51.162;13.906;2022-12-18T19:45:24;18.00;;;8.93;;
8885;SDS011;4479;51.162;13.906;2022-12-18T19:55:29;22.50;;;9.83;;
8885;SDS011;4479;51.162;13.906;2022-12-18T20:05:40;15.70;;;8.70;;
8885;SDS011;4479;51.162;13.906;2022-12-18T20:16:43;19.17;;;9.30;;
8885;SDS011;4479;51.162;13.906;2022-12-18T20:26:50;17.40;;;9.33;;
8885;SDS011;4479;51.162;13.906;2022-12-18T20:36:53;16.13;;;9.23;;
8885;SDS011;4479;51.162;13.906;2022-12-18T20:47:02;20.00;;;10.23;;
8885;SDS011;4479;51.162;13.906;2022-12-18T20:57:31;16.40;;;8.70;;
8885;SDS011;4479;51.162;13.906;2022-12-18T21:07:41;17.27;;;8.67;;
8885;SDS011;4479;51.162;13.906;2022-12-18T21:18:02;18.50;;;9.43;;
8885;SDS011;4479;51.162;13.906;2022-12-18T21:28:08;21.77;;;10.40;;
8885;SDS011;4479;51.162;13.906;2022-12-18T21:38:18;24.77;;;12.50;;
8885;SDS011;4479;51.162;13.906;2022-12-18T21:48:23;27.87;;;12.70;;
8885;SDS011;4479;51.162;13.906;2022-12-18T21:58:29;27.37;;;12.93;;
8885;SDS011;4479;51.162;13.906;2022-12-18T22:09:04;24.07;;;12.60;;
8885;SDS011;4479;51.162;13.906;2022-12-18T22:19:07;23.07;;;12.00;;
8885;SDS011;4479;51.162;13.906;2022-12-18T22:29:13;22.23;;;11.93;;
8885;SDS011;4479;51.162;13.906;2022-12-18T22:39:35;20.50;;;11.30;;
8885;SDS011;4479;51.162;13.906;2022-12-18T23:13:14;22.63;;;12.67;;
8885;SDS011;4479;51.162;13.906;2022-12-18T23:23:18;22.93;;;12.77;;
8885;SDS011;4479;51.162;13.906;2022-12-18T23:33:22;21.80;;;12.33;;
8885;SDS011;4479;51.162;13.906;2022-12-18T23:43:24;28.43;;;15.07;;
8885;SDS011;4479;51.162;13.906;2022-12-18T23:53:28;23.73;;;12.47;;
